Time;durP1;ratioP1;P1;durP2;ratioP2;P2;SDS_P1;SDS_P2;PMS_P1;PMS_P2;Temp;Humidity;BMP_temperature;BMP_pressure;BME280_temperature;BME280_humidity;BME280_pressure;Samples;Min_cycle;Max_cycle;Signal;HPM_P1;HPM_P2
2022/09/19 00:01:27;;;;;;;11.82;2.33;;;;;;;11.52;90.35;101613.81;6234886;23;20004;-76
2022/09/19 00:03:56;;;;;;;11.50;2.28;;;;;;;11.50;90.45;101609.75;6234153;23;20020;-77
2022/09/19 00:06:22;;;;;;;13.10;2.55;;;;;;;11.43;92.30;101602.00;6236965;22;20019;-77
2022/09/19 00:08:48;;;;;;;14.18;3.53;;;;;;;11.44;92.87;101606.41;6237603;22;20012;-77
2022/09/19 00:11:17;;;;;;;10.23;3.00;;;;;;;11.47;93.66;101618.88;6238703;23;20019;-77
2022/09/19 00:13:47;;;;;;;6.72;2.47;;;;;;;11.47;92.54;101608.50;6237608;22;20179;-77
2022/09/19 00:16:18;;;;;;;12.98;2.83;;;;;;;11.44;93.70;101617.63;6234290;23;20361;-77
2022/09/19 00:18:45;;;;;;;15.98;2.80;;;;;;;11.38;94.09;101622.72;6236768;23;20082;-78
2022/09/19 00:21:10;;;;;;;10.98;2.00;;;;;;;11.34;95.31;101621.84;6238471;22;20020;-77
2022/09/19 00:26:20;;;;;;;11.27;2.67;;;;;;;11.44;93.62;101626.03;6238425;23;20070;-77
2022/09/19 00:28:46;;;;;;;11.32;2.25;;;;;;;11.50;93.20;101621.78;6240300;22;20008;-77
2022/09/19 00:31:17;;;;;;;14.18;2.25;;;;;;;11.47;93.27;101618.88;6239814;22;20070;-77
2022/09/19 00:33:44;;;;;;;18.17;3.10;;;;;;;11.48;94.45;101626.94;6237561;22;20074;-77
2022/09/19 00:36:10;;;;;;;6.47;1.80;;;;;;;11.46;93.13;101629.28;6236776;23;20012;-76
2022/09/19 00:38:35;;;;;;;14.40;2.22;;;;;;;11.46;92.99;101625.69;6235587;23;20003;-78
2022/09/19 00:41:01;;;;;;;13.93;1.95;;;;;;;11.43;93.76;101618.03;6239828;23;20115;-78
2022/09/19 00:43:52;;;;;;;10.68;2.35;;;;;;;11.52;91.56;101625.03;6238693;22;20003;-78
2022/09/19 00:46:19;;;;;;;11.43;2.90;;;;;;;11.58;91.16;101620.75;6237629;23;20012;-77
2022/09/19 00:48:50;;;;;;;6.32;1.52;;;;;;;11.63;91.21;101621.66;6241519;22;20012;-77
2022/09/19 00:51:31;;;;;;;6.28;2.78;;;;;;;11.50;92.24;101623.78;6240259;22;20433;-77
2022/09/19 00:54:02;;;;;;;10.25;2.90;;;;;;;11.39;94.58;101627.16;6237579;23;20023;-78
2022/09/19 00:56:28;;;;;;;8.30;1.95;;;;;;;11.55;91.30;101620.66;6237762;23;20016;-77
2022/09/19 00:58:57;;;;;;;8.35;1.60;;;;;;;11.59;91.22;101627.19;6239798;22;20079;-77
2022/09/19 01:01:23;;;;;;;10.32;2.42;;;;;;;11.48;91.73;101612.91;6236493;23;20019;-78
2022/09/19 01:03:48;;;;;;;11.00;2.70;;;;;;;11.50;92.05;101627.38;6234972;23;20008;-77
2022/09/19 01:06:42;;;;;;;7.00;2.47;;;;;;;11.39;93.40;101629.16;6235173;23;20035;-79
2022/09/19 01:09:25;;;;;;;17.65;2.75;;;;;;;11.56;91.76;101639.94;6234366;23;20047;-77
2022/09/19 01:12:22;;;;;;;13.70;3.50;;;;;;;11.47;92.84;101639.34;6233814;23;20077;-77
2022/09/19 01:15:21;;;;;;;9.13;2.60;;;;;;;11.50;91.30;101641.41;6237325;22;20058;-77
2022/09/19 01:17:50;;;;;;;10.05;2.30;;;;;;;11.59;91.62;101646.81;6237505;22;20015;-78
2022/09/19 01:20:21;;;;;;;14.20;2.45;;;;;;;11.56;91.95;101648.34;6239130;22;20008;-76
2022/09/19 01:23:15;;;;;;;10.18;1.75;;;;;;;11.62;90.42;101642.47;6235175;23;20055;-78
2022/09/19 01:26:11;;;;;;;15.85;3.08;;;;;;;11.54;92.39;101645.09;6220781;23;20022;-78
2022/09/19 01:28:53;;;;;;;12.65;3.33;;;;;;;11.54;90.57;101636.69;6235022;23;20035;-77
2022/09/19 01:31:26;;;;;;;18.70;2.17;;;;;;;11.44;92.84;101648.47;6236490;23;20008;-77
2022/09/19 01:34:16;;;;;;;10.93;1.83;;;;;;;11.47;91.33;101658.97;6233528;22;20226;-79
2022/09/19 01:36:46;;;;;;;11.32;2.25;;;;;;;11.56;90.62;101656.75;6234438;22;20040;-77
2022/09/19 01:39:17;;;;;;;8.73;1.80;;;;;;;11.51;93.56;101656.22;6234563;22;20015;-78
2022/09/19 01:41:53;;;;;;;9.02;2.50;;;;;;;11.55;91.45;101663.56;6235301;22;20439;-78
2022/09/19 01:44:21;;;;;;;22.33;2.25;;;;;;;11.54;92.78;101659.13;6233065;23;20012;-79
2022/09/19 01:46:52;;;;;;;10.43;1.98;;;;;;;11.56;90.85;101662.38;6237467;23;20000;-77
2022/09/19 01:49:39;;;;;;;6.80;1.98;;;;;;;11.54;92.52;101661.91;6236223;22;20052;-79
2022/09/19 01:52:23;;;;;;;13.85;2.00;;;;;;;11.63;91.28;101666.53;6234586;23;20027;-77
2022/09/19 01:55:14;;;;;;;9.73;2.75;;;;;;;11.63;90.96;101658.09;6179694;23;20390;-78
2022/09/19 01:57:50;;;;;;;8.48;2.63;;;;;;;11.64;90.59;101660.56;6205131;23;20066;-78
2022/09/19 02:00:20;;;;;;;7.60;1.27;;;;;;;11.66;90.77;101652.59;6206970;23;20024;-79
2022/09/19 02:03:02;;;;;;;9.68;2.30;;;;;;;11.60;91.71;101651.25;6206546;23;20039;-77
2022/09/19 02:06:06;;;;;;;14.88;3.45;;;;;;;11.69;89.99;101653.84;6178912;23;20004;-77
2022/09/19 02:09:09;;;;;;;10.82;2.70;;;;;;;11.59;91.68;101650.44;6178995;23;20095;-77
2022/09/19 02:11:35;;;;;;;9.65;2.58;;;;;;;11.54;91.48;101650.72;6144455;23;20092;-78
2022/09/19 02:14:16;;;;;;;14.35;2.65;;;;;;;11.59;91.44;101650.44;6204839;23;20036;-78
2022/09/19 02:17:06;;;;;;;12.93;2.35;;;;;;;11.62;91.15;101653.69;6181210;23;20078;-77
2022/09/19 02:19:42;;;;;;;15.57;2.08;;;;;;;11.63;90.44;101646.88;6207699;23;20083;-78
2022/09/19 02:22:14;;;;;;;13.27;2.42;;;;;;;11.58;91.19;101648.81;6203881;23;20016;-78
2022/09/19 02:24:42;;;;;;;16.60;2.60;;;;;;;11.51;92.49;101642.22;6178704;23;20005;-77
2022/09/19 02:27:13;;;;;;;10.80;2.30;;;;;;;11.53;91.26;101646.28;6179335;23;20527;-78
2022/09/19 02:29:44;;;;;;;13.43;2.33;;;;;;;11.49;92.59;101650.16;6178933;23;20059;-78
2022/09/19 02:32:11;;;;;;;11.57;1.90;;;;;;;11.56;90.59;101650.34;6205595;23;20043;-79
2022/09/19 02:34:37;;;;;;;8.63;1.95;;;;;;;11.54;91.26;101655.50;6208711;23;20333;-77
2022/09/19 02:37:12;;;;;;;13.38;3.35;;;;;;;11.49;91.39;101656.63;6182077;23;20024;-78
2022/09/19 02:39:48;;;;;;;13.73;2.47;;;;;;;11.54;90.84;101659.13;6206797;23;20015;-77
2022/09/19 02:42:20;;;;;;;12.73;2.83;;;;;;;11.57;90.49;101661.22;6180040;23;20078;-79
2022/09/19 02:45:10;;;;;;;10.77;2.55;;;;;;;11.57;91.27;101664.00;6207109;23;20005;-78
2022/09/19 02:47:51;;;;;;;13.13;2.67;;;;;;;11.52;90.85;101664.28;6181413;23;20429;-77
2022/09/19 02:50:40;;;;;;;11.02;2.83;;;;;;;11.42;93.03;101655.63;6207827;23;20009;-77
2022/09/19 02:53:12;;;;;;;9.85;2.20;;;;;;;11.51;91.24;101664.63;6179362;23;20472;-79
2022/09/19 02:55:46;;;;;;;13.82;3.22;;;;;;;11.49;91.02;101667.81;6207864;23;20039;-78
2022/09/19 02:58:15;;;;;;;8.23;1.67;;;;;;;11.50;90.64;101663.03;6181497;23;20059;-78
2022/09/19 03:00:46;;;;;;;7.18;1.75;;;;;;;11.32;93.40;101673.81;6208879;23;20019;-76
2022/09/19 03:06:27;;;;;;;7.25;1.85;;;;;;;11.35;91.82;101667.50;6207539;23;20042;-77
2022/09/19 03:08:55;;;;;;;7.28;1.77;;;;;;;11.42;91.46;101673.25;6206123;23;20033;-78
2022/09/19 03:11:23;;;;;;;10.75;2.00;;;;;;;11.36;92.52;101671.91;6207189;23;20040;-77
2022/09/19 03:13:49;;;;;;;10.05;2.10;;;;;;;11.45;91.35;101672.53;6180644;23;20091;-78
2022/09/19 03:16:20;;;;;;;13.05;2.03;;;;;;;11.43;91.07;101674.91;6209135;23;20051;-77
2022/09/19 03:18:47;;;;;;;9.20;1.85;;;;;;;11.41;91.45;101673.63;6207990;23;20004;-78
2022/09/19 03:21:18;;;;;;;11.77;2.33;;;;;;;11.49;90.63;101681.00;6179966;23;20063;-76
2022/09/19 03:23:49;;;;;;;12.65;3.67;;;;;;;11.39;92.14;101679.59;6206141;23;20019;-78
2022/09/19 03:26:20;;;;;;;11.15;1.85;;;;;;;11.47;90.55;101687.00;6181152;23;20040;-78
2022/09/19 03:28:46;;;;;;;14.05;1.80;;;;;;;11.55;89.83;101694.41;6179606;23;20155;-76
2022/09/19 03:31:12;;;;;;;14.27;2.00;;;;;;;11.39;91.31;101685.22;6207489;23;20397;-78
2022/09/19 03:33:39;;;;;;;9.27;2.00;;;;;;;11.47;90.46;101681.41;6206808;23;20032;-78
2022/09/19 03:36:08;;;;;;;10.27;1.95;;;;;;;11.51;90.35;101690.72;6207128;23;20009;-78
2022/09/19 03:38:44;;;;;;;5.30;1.80;;;;;;;11.51;90.18;101689.88;6207497;23;20058;-76
2022/09/19 03:41:17;;;;;;;14.60;3.67;;;;;;;11.52;90.62;101692.31;6207603;23;20019;-77
2022/09/19 03:43:42;;;;;;;13.27;2.35;;;;;;;11.47;90.45;101691.78;6182681;23;20817;-78
2022/09/19 03:46:12;;;;;;;16.02;3.28;;;;;;;11.48;89.98;101688.63;6208947;23;20001;-77
2022/09/19 03:48:39;;;;;;;16.42;2.65;;;;;;;11.52;90.62;101700.72;6209110;23;20429;-77
2022/09/19 03:51:05;;;;;;;14.95;2.40;;;;;;;11.53;89.61;101699.56;6210452;23;20036;-77
2022/09/19 03:53:31;;;;;;;12.38;3.08;;;;;;;11.42;90.94;101701.28;6221805;23;20027;-77
2022/09/19 03:55:57;;;;;;;11.73;2.88;;;;;;;11.38;91.91;101700.38;6238081;23;20011;-76
2022/09/19 03:58:23;;;;;;;10.15;2.28;;;;;;;11.43;90.76;101704.91;6214366;23;20032;-76
2022/09/19 04:00:49;;;;;;;16.75;3.08;;;;;;;11.36;92.90;101706.38;6238417;23;20008;-76
2022/09/19 04:03:17;;;;;;;13.07;2.28;;;;;;;11.41;91.29;101704.47;6238045;23;20008;-78
2022/09/19 04:05:42;;;;;;;15.27;2.63;;;;;;;11.47;90.84;101703.00;6239952;23;20012;-78
2022/09/19 04:08:08;;;;;;;14.27;2.15;;;;;;;11.44;91.09;101704.53;6211704;23;20004;-76
2022/09/19 04:10:33;;;;;;;11.40;2.20;;;;;;;11.42;90.57;101701.28;6240974;23;20387;-76
2022/09/19 04:12:58;;;;;;;14.68;2.67;;;;;;;11.39;90.92;101708.44;6239687;23;20486;-78
2022/09/19 04:15:24;;;;;;;11.77;1.70;;;;;;;11.37;91.11;101713.59;6238488;23;20008;-76
2022/09/19 04:17:49;;;;;;;13.30;2.08;;;;;;;11.30;92.50;101713.44;6213073;23;20004;-78
2022/09/19 04:20:15;;;;;;;7.50;1.58;;;;;;;11.37;91.15;101716.41;6213952;23;20094;-77
2022/09/19 04:22:41;;;;;;;14.35;2.00;;;;;;;11.37;91.81;101718.38;6210519;23;20077;-76
2022/09/19 04:25:10;;;;;;;8.32;1.58;;;;;;;11.42;90.72;101722.91;6239415;23;20349;-78
2022/09/19 04:27:39;;;;;;;10.15;2.15;;;;;;;11.35;91.06;101723.53;6213988;23;20020;-79
2022/09/19 04:30:05;;;;;;;8.95;1.65;;;;;;;11.33;90.79;101720.28;6212070;23;20034;-76
2022/09/19 04:32:30;;;;;;;20.00;2.47;;;;;;;11.36;89.97;101719.56;6238978;23;20007;-76
2022/09/19 04:34:59;;;;;;;10.95;3.15;;;;;;;11.41;89.65;101722.09;6236011;23;20015;-78
2022/09/19 04:37:29;;;;;;;15.07;1.83;;;;;;;11.37;89.81;101724.81;6236720;23;20441;-77
2022/09/19 04:39:54;;;;;;;10.80;1.67;;;;;;;11.38;89.83;101725.59;6237110;23;20376;-76
2022/09/19 04:42:20;;;;;;;15.15;2.55;;;;;;;11.34;89.68;101722.75;6240165;23;20040;-77
2022/09/19 04:44:45;;;;;;;11.85;1.90;;;;;;;11.33;90.61;101731.50;6240015;23;20011;-77
2022/09/19 04:47:10;;;;;;;10.88;1.88;;;;;;;11.35;89.45;101723.53;6239113;23;20483;-77
2022/09/19 04:49:40;;;;;;;6.63;1.80;;;;;;;11.36;89.21;101730.75;6239953;23;20004;-76
2022/09/19 04:52:07;;;;;;;9.90;1.83;;;;;;;11.40;89.18;101731.66;6214449;23;20041;-76
2022/09/19 04:54:36;;;;;;;11.98;3.03;;;;;;;11.40;88.92;101731.66;6232892;23;20028;-77
2022/09/19 04:57:07;;;;;;;9.30;2.25;;;;;;;11.41;89.02;101732.50;6235634;22;20015;-77
2022/09/19 04:59:34;;;;;;;11.98;3.13;;;;;;;11.34;89.83;101735.91;6238869;22;20008;-77
2022/09/19 05:02:01;;;;;;;9.68;2.40;;;;;;;11.32;90.14;101736.31;6237057;23;20012;-76
2022/09/19 05:04:27;;;;;;;13.57;2.03;;;;;;;11.26;91.72;101736.91;6235617;23;20004;-77
2022/09/19 05:06:52;;;;;;;6.55;1.65;;;;;;;11.31;90.52;101739.47;6238997;23;20012;-77
2022/09/19 05:09:18;;;;;;;17.08;3.85;;;;;;;11.35;89.82;101740.38;6237640;23;20039;-76
2022/09/19 05:11:46;;;;;;;14.60;2.50;;;;;;;11.37;91.22;101743.63;6237703;22;20083;-78
2022/09/19 05:14:13;;;;;;;14.32;2.38;;;;;;;11.39;89.80;101744.06;6235440;23;20015;-78
2022/09/19 05:16:39;;;;;;;13.10;2.58;;;;;;;11.34;91.88;101755.53;6236641;23;20024;-77
2022/09/19 05:19:04;;;;;;;9.43;2.83;;;;;;;11.32;91.41;101743.88;6234520;23;20008;-76
2022/09/19 05:21:30;;;;;;;9.45;2.25;;;;;;;11.33;91.31;101748.31;6234191;22;20015;-77
2022/09/19 05:23:55;;;;;;;11.93;2.42;;;;;;;11.36;90.79;101750.38;6234836;23;20012;-77
2022/09/19 05:26:20;;;;;;;6.63;1.88;;;;;;;11.32;91.57;101753.13;6237087;22;20073;-77
2022/09/19 05:28:46;;;;;;;12.35;2.13;;;;;;;11.31;90.90;101756.28;6232719;23;20386;-77
2022/09/19 05:31:12;;;;;;;11.00;2.05;;;;;;;11.28;93.32;101755.00;6233300;23;20498;-77
2022/09/19 05:33:38;;;;;;;8.43;1.75;;;;;;;11.25;93.47;101763.31;6235716;22;20004;-76
2022/09/19 05:36:04;;;;;;;11.32;2.63;;;;;;;11.33;90.98;101760.34;6235091;22;20352;-78
2022/09/19 05:38:31;;;;;;;9.77;2.70;;;;;;;11.29;92.10;101759.44;6234925;22;20010;-77
2022/09/19 05:40:58;;;;;;;14.57;2.60;;;;;;;11.34;90.77;101764.78;6237452;22;20058;-77
2022/09/19 05:43:25;;;;;;;14.43;2.25;;;;;;;11.36;90.83;101776.44;6232194;23;20436;-77
2022/09/19 05:45:52;;;;;;;11.10;2.47;;;;;;;11.35;91.12;101776.81;6234250;22;20012;-76
2022/09/19 05:48:18;;;;;;;9.93;2.05;;;;;;;11.26;93.74;101781.75;6234217;22;20070;-78
2022/09/19 05:50:44;;;;;;;9.00;1.60;;;;;;;11.30;91.90;101777.06;6237712;22;20117;-76
2022/09/19 05:55:58;;;;;;;11.52;2.08;;;;;;;11.37;91.52;101783.66;6234359;23;20467;-77
2022/09/19 05:58:24;;;;;;;11.20;2.50;;;;;;;11.38;91.59;101784.47;6207689;23;20012;-78
2022/09/19 06:00:50;;;;;;;7.88;1.85;;;;;;;11.33;92.19;101782.75;6205850;23;20500;-77
2022/09/19 06:03:16;;;;;;;10.70;1.92;;;;;;;11.37;92.09;101792.06;6207071;23;20036;-77
2022/09/19 06:05:45;;;;;;;14.80;2.88;;;;;;;11.42;93.75;101779.78;6206417;23;20001;-77
2022/09/19 06:08:12;;;;;;;11.25;3.50;;;;;;;11.43;92.54;101781.41;6236018;23;20016;-77
2022/09/19 06:10:41;;;;;;;10.18;2.20;;;;;;;11.42;93.62;101790.19;6209274;23;20039;-77
2022/09/19 06:13:14;;;;;;;11.32;2.67;;;;;;;11.91;93.17;101785.03;6232803;23;20007;-84
2022/09/19 06:15:40;;;;;;;11.50;1.80;;;;;;;12.57;91.36;101796.50;6233376;23;20039;-90
2022/09/19 06:18:07;;;;;;;8.20;2.83;;;;;;;13.98;84.77;101787.38;6191629;23;20060;-82
2022/09/19 06:20:32;;;;;;;17.08;2.75;;;;;;;12.87;87.21;101799.50;6207131;23;20012;-82
2022/09/19 06:23:02;;;;;;;10.50;1.85;;;;;;;12.19;90.71;101800.88;6212442;23;20019;-83
2022/09/19 06:25:32;;;;;;;10.23;2.70;;;;;;;11.97;93.53;101791.97;6214648;23;20345;-83
2022/09/19 06:28:00;;;;;;;20.95;2.92;;;;;;;11.95;93.86;101797.16;6240948;23;20061;-82
2022/09/19 06:30:27;;;;;;;12.45;1.90;;;;;;;11.89;93.90;101798.59;6212953;23;20086;-82
2022/09/19 06:32:53;;;;;;;15.48;3.40;;;;;;;11.97;93.73;101806.00;6240705;23;20318;-82
2022/09/19 06:35:20;;;;;;;12.85;2.17;;;;;;;12.02;92.35;101806.88;6211150;23;20087;-82
2022/09/19 06:37:47;;;;;;;3.90;2.03;;;;;;;11.97;91.98;101811.63;6213476;23;20018;-82
2022/09/19 06:40:13;;;;;;;7.85;1.73;;;;;;;12.07;91.67;101809.41;6212128;23;20066;-82
2022/09/19 06:42:39;;;;;;;15.85;2.45;;;;;;;12.00;90.43;101810.88;6241090;23;20007;-83
2022/09/19 06:45:06;;;;;;;18.02;3.05;;;;;;;12.02;90.12;101818.09;6241337;23;20015;-82
2022/09/19 06:47:31;;;;;;;12.27;2.80;;;;;;;12.02;89.62;101827.34;6213962;23;20502;-83
2022/09/19 06:49:56;;;;;;;10.95;2.08;;;;;;;12.04;89.57;101835.38;6240301;23;20111;-83
2022/09/19 06:52:22;;;;;;;9.57;2.15;;;;;;;12.10;90.04;101819.91;6214226;22;20138;-83
2022/09/19 06:54:47;;;;;;;11.77;1.70;;;;;;;12.08;89.47;101833.47;6241511;23;20000;-81
2022/09/19 06:57:12;;;;;;;15.02;3.00;;;;;;;12.05;90.58;101839.84;6214628;23;20022;-82
2022/09/19 06:59:38;;;;;;;10.85;2.22;;;;;;;12.15;90.45;101850.50;6213644;23;20018;-82
2022/09/19 07:02:04;;;;;;;10.45;2.95;;;;;;;12.14;90.57;101834.84;6214656;23;20436;-83
2022/09/19 07:04:29;;;;;;;17.25;2.85;;;;;;;12.22;91.68;101836.63;6217134;23;20008;-82
2022/09/19 07:06:56;;;;;;;18.42;3.17;;;;;;;12.15;91.44;101830.84;6215595;23;20054;-82
2022/09/19 07:09:22;;;;;;;14.43;3.40;;;;;;;12.36;92.05;101836.97;6213739;23;20008;-81
2022/09/19 07:11:47;;;;;;;6.72;1.88;;;;;;;12.31;91.10;101831.63;6212599;23;20046;-82
2022/09/19 07:14:13;;;;;;;13.32;1.85;;;;;;;12.45;91.10;101842.34;6213634;23;20012;-82
2022/09/19 07:16:38;;;;;;;18.23;1.95;;;;;;;12.47;92.70;101844.81;6214925;23;20004;-82
2022/09/19 07:19:03;;;;;;;10.55;2.22;;;;;;;12.46;90.81;101843.16;6213352;23;20573;-81
2022/09/19 07:21:29;;;;;;;15.77;3.40;;;;;;;12.48;90.54;101844.44;6242408;23;20340;-81
2022/09/19 07:23:54;;;;;;;15.05;2.05;;;;;;;12.49;90.95;101854.47;6241066;23;20034;-81
2022/09/19 07:26:21;;;;;;;18.52;3.38;;;;;;;12.55;90.05;101857.81;6243801;23;20542;-81
2022/09/19 07:28:46;;;;;;;10.63;2.50;;;;;;;12.55;90.27;101850.22;6215827;23;20004;-80
2022/09/19 07:31:13;;;;;;;13.48;1.95;;;;;;;12.71;89.42;101860.56;6241852;23;20004;-79
2022/09/19 07:33:38;;;;;;;12.63;2.20;;;;;;;12.77;89.29;101865.50;6214160;23;20003;-80
2022/09/19 07:36:06;;;;;;;7.32;1.88;;;;;;;12.82;86.22;101851.19;6213651;23;20035;-80
2022/09/19 07:38:33;;;;;;;9.95;2.75;;;;;;;12.84;86.90;101864.88;6213655;23;20008;-79
2022/09/19 07:41:00;;;;;;;5.90;1.70;;;;;;;12.91;86.10;101872.63;6240958;23;20016;-79
2022/09/19 07:43:25;;;;;;;11.40;2.60;;;;;;;13.00;86.60;101862.78;6241744;23;20004;-80
2022/09/19 07:45:51;;;;;;;11.80;1.95;;;;;;;13.00;84.66;101870.41;6216216;23;20102;-80
2022/09/19 07:48:18;;;;;;;15.27;2.03;;;;;;;13.12;86.49;101875.06;6215534;23;20003;-79
2022/09/19 07:50:44;;;;;;;8.65;2.17;;;;;;;13.05;87.23;101880.53;6243057;23;20035;-79
2022/09/19 07:53:15;;;;;;;10.27;1.90;;;;;;;13.21;88.13;101873.63;6241776;23;20062;-80
2022/09/19 07:55:42;;;;;;;14.50;1.75;;;;;;;13.25;83.40;101878.53;6238775;23;20091;-79
2022/09/19 07:58:10;;;;;;;15.82;2.47;;;;;;;13.30;83.82;101878.25;6239864;23;20011;-79
2022/09/19 08:00:36;;;;;;;12.13;2.38;;;;;;;13.37;81.84;101889.66;6206133;23;20012;-80
2022/09/19 08:03:05;;;;;;;12.63;2.20;;;;;;;13.39;82.76;101888.06;6211441;23;20011;-79
2022/09/19 08:05:37;;;;;;;9.82;1.88;;;;;;;13.45;81.53;101888.59;6214114;23;20096;-78
2022/09/19 08:08:03;;;;;;;17.52;2.20;;;;;;;13.40;81.90;101894.50;6238745;23;20031;-78
2022/09/19 08:10:30;;;;;;;10.95;1.70;;;;;;;13.30;81.61;101895.94;6239021;23;20416;-78
2022/09/19 08:13:02;;;;;;;9.00;1.75;;;;;;;13.44;83.69;101894.59;6213967;23;20095;-78
2022/09/19 08:15:28;;;;;;;;;;;;;;;13.31;85.22;101893.94;6239583;23;20012;-78
2022/09/19 08:18:03;;;;;;;9.07;1.58;;;;;;;13.34;84.74;101907.25;6211841;23;19998;-79
2022/09/19 08:20:31;;;;;;;11.80;1.85;;;;;;;13.49;85.49;101911.97;6237284;23;20007;-79
2022/09/19 08:23:01;;;;;;;17.50;2.83;;;;;;;13.40;84.55;101902.94;6213341;23;20016;-79
2022/09/19 08:25:30;;;;;;;10.70;2.65;;;;;;;13.38;85.84;101913.75;6242696;23;20040;-79
2022/09/19 08:27:56;;;;;;;14.27;2.47;;;;;;;13.63;86.21;101917.84;6214668;23;20329;-79
2022/09/19 08:30:23;;;;;;;11.23;1.90;;;;;;;13.62;85.12;101921.84;6241073;23;20087;-79
2022/09/19 08:32:49;;;;;;;14.55;3.05;;;;;;;13.74;85.26;101920.84;6215066;23;20015;-78
2022/09/19 08:35:19;;;;;;;24.40;4.18;;;;;;;13.91;85.05;101916.72;6213442;23;20040;-77
2022/09/19 08:37:46;;;;;;;9.88;3.25;;;;;;;13.79;86.02;101919.75;6215184;23;20463;-78
2022/09/19 08:40:15;;;;;;;10.60;2.13;;;;;;;13.71;86.15;101927.25;6243343;23;20046;-78
2022/09/19 08:42:53;;;;;;;10.77;1.95;;;;;;;13.57;86.01;101924.97;6216064;23;20103;-75
2022/09/19 08:45:48;;;;;;;10.43;2.35;;;;;;;13.74;84.91;101932.09;6216841;23;20095;-75
2022/09/19 08:48:24;;;;;;;13.88;2.45;;;;;;;13.79;84.10;101920.56;6237358;23;20062;-75
2022/09/19 08:51:14;;;;;;;10.68;1.83;;;;;;;13.77;83.99;101922.13;6216639;23;20000;-75
2022/09/19 08:53:45;;;;;;;12.13;2.33;;;;;;;13.70;84.04;101925.59;6242356;22;20019;-75
2022/09/19 08:56:13;;;;;;;10.73;2.03;;;;;;;13.81;83.41;101931.44;6240744;23;20004;-76
2022/09/19 08:58:46;;;;;;;16.00;3.78;;;;;;;13.85;83.58;101929.50;6216173;23;20012;-75
2022/09/19 09:01:15;;;;;;;13.48;2.92;;;;;;;13.83;82.99;101924.25;6243244;23;20008;-76
2022/09/19 09:04:04;;;;;;;8.70;1.85;;;;;;;13.76;83.77;101926.91;6216006;23;20436;-76
2022/09/19 09:06:47;;;;;;;10.23;2.35;;;;;;;13.94;84.03;101921.63;6241994;23;20353;-75
2022/09/19 09:09:26;;;;;;;16.25;2.25;;;;;;;13.90;83.69;101928.38;6218271;23;20020;-76
2022/09/19 09:11:56;;;;;;;11.50;2.65;;;;;;;14.05;82.05;101923.81;6243741;23;20020;-76
2022/09/19 09:14:29;;;;;;;9.05;1.70;;;;;;;14.12;83.77;101932.34;6244661;23;20413;-75
2022/09/19 09:17:33;;;;;;;11.65;2.28;;;;;;;14.02;83.63;101928.19;6214657;23;20099;-73
2022/09/19 09:20:16;;;;;;;10.02;1.80;;;;;;;14.22;82.23;101931.72;6166233;23;20094;-75
2022/09/19 09:22:44;;;;;;;10.13;2.10;;;;;;;14.22;79.45;101937.34;6239893;23;20444;-75
2022/09/19 09:25:16;;;;;;;9.15;1.80;;;;;;;14.27;78.89;101939.84;6215592;23;20015;-76
2022/09/19 09:27:51;;;;;;;18.60;3.80;;;;;;;14.40;79.02;101935.63;6213699;23;20016;-77
2022/09/19 09:30:19;;;;;;;18.42;2.90;;;;;;;14.50;77.10;101930.53;6214437;23;20012;-75
2022/09/19 09:32:56;;;;;;;14.15;3.60;;;;;;;14.33;78.98;101927.06;6239296;23;20016;-76
2022/09/19 09:35:35;;;;;;;14.02;2.10;;;;;;;14.39;80.00;101934.00;6238704;23;20015;-75
2022/09/19 09:38:27;;;;;;;9.27;1.48;;;;;;;14.37;77.98;101927.13;6212721;23;20012;-79
2022/09/19 09:44:19;;;;;;;13.60;2.28;;;;;;;14.58;77.41;101940.75;6239674;23;20356;-79
2022/09/19 09:47:14;;;;;;;10.65;2.78;;;;;;;14.53;76.29;101939.06;6210188;23;20481;-79
2022/09/19 09:49:39;;;;;;;13.00;3.42;;;;;;;14.42;75.57;101924.00;6211142;23;20009;-80
2022/09/19 09:52:15;;;;;;;10.15;1.70;;;;;;;14.61;75.01;101934.38;6236792;23;20452;-81
2022/09/19 09:58:11;;;;;;;9.25;2.47;;;;;;;14.47;77.02;101920.03;6239635;23;20111;-77
2022/09/19 10:03:36;;;;;;;13.70;3.58;;;;;;;14.73;78.48;101928.50;6238832;23;20058;-79
2022/09/19 10:06:30;;;;;;;15.00;2.53;;;;;;;14.98;77.35;101928.84;6240611;23;20087;-77
2022/09/19 10:09:17;;;;;;;11.20;1.95;;;;;;;14.90;78.22;101934.75;6212185;23;20479;-78
2022/09/19 10:11:56;;;;;;;18.60;2.50;;;;;;;14.76;78.07;101936.19;6214576;23;20031;-78
2022/09/19 10:14:30;;;;;;;7.93;2.20;;;;;;;14.79;78.47;101945.91;6215978;23;20014;-77
2022/09/19 10:17:02;;;;;;;11.70;3.00;;;;;;;14.62;80.09;101941.63;6240763;23;20058;-78
2022/09/19 10:19:40;;;;;;;14.20;3.38;;;;;;;14.71;80.20;101933.69;6241513;23;20123;-78
2022/09/19 10:22:14;;;;;;;11.80;2.63;;;;;;;14.88;79.03;101939.97;6210063;23;20023;-78
2022/09/19 10:24:55;;;;;;;8.60;1.50;;;;;;;14.74;78.46;101935.78;6211083;23;20008;-79
2022/09/19 10:27:24;;;;;;;20.20;3.30;;;;;;;14.88;78.29;101940.78;6212500;23;20020;-80
2022/09/19 10:30:18;;;;;;;9.27;1.60;;;;;;;15.08;76.99;101927.34;6211993;23;20019;-80
2022/09/19 10:32:45;;;;;;;15.02;3.35;;;;;;;14.94;77.08;101932.81;6239426;23;20442;-79
2022/09/19 10:35:36;;;;;;;10.40;1.63;;;;;;;14.98;77.36;101939.31;6215033;23;20015;-79
2022/09/19 10:38:09;;;;;;;7.70;2.05;;;;;;;14.82;74.33;101948.78;6215800;23;20030;-80
2022/09/19 10:40:34;;;;;;;11.10;2.75;;;;;;;14.59;72.95;101945.22;6243491;23;20387;-79
2022/09/19 10:43:01;;;;;;;8.73;1.55;;;;;;;14.50;75.49;101945.44;6241959;23;20012;-79
2022/09/19 10:45:30;;;;;;;8.80;1.73;;;;;;;14.41;74.01;101954.16;6244006;23;20035;-79
2022/09/19 10:48:01;;;;;;;9.77;2.00;;;;;;;14.48;74.77;101947.00;6216705;23;20008;-79
2022/09/19 10:50:30;;;;;;;7.80;1.73;;;;;;;14.75;74.79;101948.66;6215321;23;20424;-79
2022/09/19 10:53:02;;;;;;;8.07;2.53;;;;;;;14.88;73.78;101946.41;6217339;23;20095;-79
2022/09/19 10:55:32;;;;;;;;;;;;;;;15.18;74.57;101937.16;6243847;22;20019;-79
2022/09/19 10:58:03;;;;;;;8.32;1.63;;;;;;;15.17;73.49;101941.97;6241443;22;19914;-80
2022/09/19 11:00:47;;;;;;;17.05;2.20;;;;;;;15.11;71.86;101945.50;6239402;23;20436;-79
2022/09/19 11:03:23;;;;;;;8.05;1.55;;;;;;;15.07;73.61;101948.28;6241863;22;20016;-79
2022/09/19 11:06:10;;;;;;;13.40;2.20;;;;;;;14.89;75.40;101953.69;6239750;22;20093;-79
2022/09/19 11:08:53;;;;;;;15.02;1.98;;;;;;;14.75;75.44;101959.94;6241041;22;20341;-78
2022/09/19 11:11:37;;;;;;;;;;;;;;;14.91;75.86;101962.59;6241251;22;20008;-79
2022/09/19 11:14:31;;;;;;;8.13;1.80;;;;;;;15.07;75.44;101956.72;6237420;23;19964;-79
2022/09/19 11:17:29;;;;;;;9.55;2.22;;;;;;;15.33;73.60;101960.72;6238960;23;20455;-78
2022/09/19 11:20:16;;;;;;;15.38;3.20;;;;;;;15.67;72.95;101969.16;6239990;23;20023;-79
2022/09/19 11:23:18;;;;;;;8.20;1.60;;;;;;;15.62;71.42;101957.00;6237632;22;20075;-78
2022/09/19 11:25:51;;;;;;;10.02;1.67;;;;;;;15.67;72.44;101960.69;6238223;23;20023;-79
2022/09/19 11:28:43;;;;;;;7.65;1.80;;;;;;;15.66;72.54;101962.66;6240021;23;20134;-79
2022/09/19 11:31:27;;;;;;;11.77;1.98;;;;;;;15.73;71.60;101967.63;6241818;22;20004;-80
2022/09/19 11:33:55;;;;;;;8.30;2.05;;;;;;;15.65;71.56;101961.88;6239765;23;20008;-80
2022/09/19 11:37:10;;;;;;;10.30;2.10;;;;;;;15.94;70.55;101958.53;6239645;22;20011;-79
2022/09/19 11:40:04;;;;;;;7.90;1.70;;;;;;;16.15;69.77;101963.56;6121809;23;20017;-78
2022/09/19 11:42:41;;;;;;;7.93;2.10;;;;;;;16.01;67.05;101955.81;6233339;23;20520;-79
2022/09/19 11:45:10;;;;;;;7.32;1.30;;;;;;;16.16;67.33;101962.38;6239162;23;20069;-79
2022/09/19 11:48:01;;;;;;;9.38;2.20;;;;;;;16.37;67.58;101964.59;6237698;23;20436;-79
2022/09/19 11:50:59;;;;;;;8.18;2.00;;;;;;;16.43;67.69;101965.84;6238367;22;20043;-79
2022/09/19 11:53:36;;;;;;;9.48;2.28;;;;;;;16.35;67.75;101953.66;6237018;22;20023;-79
2022/09/19 11:56:23;;;;;;;6.95;1.90;;;;;;;15.98;69.62;101968.69;6237986;23;20016;-79
2022/09/19 11:58:51;;;;;;;7.93;1.50;;;;;;;15.59;72.56;101983.16;6213004;23;20016;-79
2022/09/19 12:01:40;;;;;;;6.65;1.70;;;;;;;15.36;73.55;101988.13;6240246;23;20038;-78